Terminal Aerodrome Forecast
Issued by NWS Sterling, VA

Home | Current Version | Previous Version | Text Only | Print | Product List | Glossary On
Versions: 1 2 3 4 5 6 7 8 9 10 11 12 13
000
FTUS41 KLWX 180500
TAFCHO
TAF
KCHO 180533Z 1806/1906 00000KT 5SM BR SCT050
     FM180800 00000KT 2SM BR SCT045
     FM181200 00000KT P6SM SCT035 BKN045=

USA.gov is the U.S. government's official web portal to all federal, state and local government web resources and services.